PAL462 RPLL-RKPK
Flight info
| Callsign | PAL462 |
|---|---|
| Flight time | N/A |
| Altitude | 35000 |
| Route | CAB2R CAB N884 ALBAX Y531 YURIX Y62 BOMAP Y25 GOKYO/N0458F360 Y25 IKE DCT INVOK PEDLO1 |
| Aircraft | A321/M-SDE3FGHIRWY/LB1 |
Departure
| Time | N/A |
|---|---|
| Airport | Ninoy Aquino International Airport (RPLL) |
Arrival
| Time | 2026-05-06 11:13 |
|---|---|
| Airport | Gimhae International Airport (RKPK) |
| Time | Latitude | Longitude | Altitude | Speed | Heading |
|---|---|---|---|---|---|
| 2026-05-06 10:20 | 30.19591 | 129.84526 | 36041 ft | 447 kts | 3° |
| 2026-05-06 10:21 | 30.24725 | 129.85065 | 36056 ft | 447 kts | 3° |
| 2026-05-06 10:21 | 30.30877 | 129.85725 | 36058 ft | 447 kts | 3° |
| 2026-05-06 10:22 | 30.37017 | 129.86388 | 36059 ft | 446 kts | 3° |
| 2026-05-06 10:22 | 30.43202 | 129.87058 | 36059 ft | 447 kts | 3° |
| 2026-05-06 10:23 | 30.49370 | 129.87726 | 36059 ft | 447 kts | 3° |
| 2026-05-06 10:23 | 30.55545 | 129.88399 | 36060 ft | 447 kts | 3° |
| 2026-05-06 10:24 | 30.61729 | 129.89073 | 36059 ft | 447 kts | 3° |
| 2026-05-06 10:24 | 30.68909 | 129.89861 | 36059 ft | 446 kts | 3° |
| 2026-05-06 10:25 | 30.75057 | 129.90533 | 36060 ft | 446 kts | 3° |
| 2026-05-06 10:25 | 30.81215 | 129.91211 | 36060 ft | 447 kts | 3° |
| 2026-05-06 10:26 | 30.87377 | 129.91885 | 36059 ft | 446 kts | 3° |
| 2026-05-06 10:26 | 30.93528 | 129.92560 | 36060 ft | 446 kts | 3° |
| 2026-05-06 10:27 | 30.99706 | 129.93242 | 36066 ft | 445 kts | 2° |
| 2026-05-06 10:27 | 31.05807 | 129.93913 | 36075 ft | 444 kts | 2° |
| 2026-05-06 10:28 | 31.11973 | 129.94588 | 36082 ft | 444 kts | 2° |
| 2026-05-06 10:28 | 31.18121 | 129.95267 | 36085 ft | 444 kts | 2° |
| 2026-05-06 10:29 | 31.23210 | 129.95830 | 36086 ft | 444 kts | 2° |
| 2026-05-06 10:29 | 31.30378 | 129.96603 | 36086 ft | 444 kts | 1° |
| 2026-05-06 10:30 | 31.35463 | 129.97008 | 36086 ft | 443 kts | 0° |
| 2026-05-06 10:30 | 31.42642 | 129.97551 | 36086 ft | 443 kts | 0° |
| 2026-05-06 10:31 | 31.48762 | 129.98029 | 36086 ft | 444 kts | 0° |
| 2026-05-06 10:31 | 31.53890 | 129.98433 | 36086 ft | 444 kts | 0° |
| 2026-05-06 10:32 | 31.61013 | 129.98997 | 36086 ft | 444 kts | 0° |
| 2026-05-06 10:32 | 31.67156 | 129.99487 | 36086 ft | 443 kts | 0° |
| 2026-05-06 10:33 | 31.72273 | 129.99895 | 36086 ft | 443 kts | 0° |
| 2026-05-06 10:33 | 31.78446 | 130.00388 | 36086 ft | 444 kts | 0° |
| 2026-05-06 10:34 | 31.84587 | 130.00879 | 36086 ft | 443 kts | 0° |
| 2026-05-06 10:34 | 31.90752 | 130.01373 | 36086 ft | 444 kts | 0° |
| 2026-05-06 10:35 | 31.96909 | 130.01869 | 36086 ft | 444 kts | 0° |
| 2026-05-06 10:35 | 32.03065 | 130.02361 | 36086 ft | 443 kts | 0° |
| 2026-05-06 10:36 | 32.10235 | 130.02934 | 36086 ft | 444 kts | 0° |
| 2026-05-06 10:36 | 32.16429 | 130.03432 | 36085 ft | 443 kts | 0° |
| 2026-05-06 10:37 | 32.22562 | 130.03928 | 36082 ft | 444 kts | 0° |
| 2026-05-06 10:37 | 32.28717 | 130.04425 | 36077 ft | 444 kts | 0° |
| 2026-05-06 10:38 | 32.34890 | 130.04925 | 36070 ft | 444 kts | 0° |
| 2026-05-06 10:38 | 32.41057 | 130.05426 | 36064 ft | 444 kts | 0° |
| 2026-05-06 10:39 | 32.47183 | 130.05927 | 36062 ft | 444 kts | 0° |
| 2026-05-06 10:39 | 32.52338 | 130.06345 | 36061 ft | 444 kts | 0° |
| 2026-05-06 10:40 | 32.58448 | 130.06483 | 36061 ft | 441 kts | 354° |
| 2026-05-06 10:40 | 32.65569 | 130.05647 | 36061 ft | 438 kts | 347° |
| 2026-05-06 10:41 | 32.71514 | 130.04227 | 36061 ft | 437 kts | 344° |
| 2026-05-06 10:41 | 32.76408 | 130.02968 | 36061 ft | 436 kts | 345° |
| 2026-05-06 10:42 | 32.83337 | 130.01195 | 36061 ft | 436 kts | 345° |
| 2026-05-06 10:42 | 32.89270 | 129.99680 | 36061 ft | 436 kts | 345° |
| 2026-05-06 10:43 | 32.95174 | 129.98173 | 36061 ft | 436 kts | 345° |
| 2026-05-06 10:44 | 33.04036 | 129.95921 | 36060 ft | 434 kts | 343° |
| 2026-05-06 10:44 | 33.09896 | 129.94426 | 36056 ft | 433 kts | 342° |
| 2026-05-06 10:45 | 33.15604 | 129.92958 | 36052 ft | 432 kts | 341° |
| 2026-05-06 10:45 | 33.21485 | 129.91438 | 36052 ft | 432 kts | 341° |
| 2026-05-06 10:46 | 33.27328 | 129.89932 | 36051 ft | 432 kts | 341° |
| 2026-05-06 10:46 | 33.33183 | 129.88426 | 36052 ft | 432 kts | 341° |
| 2026-05-06 10:47 | 33.39080 | 129.86908 | 36053 ft | 432 kts | 341° |
| 2026-05-06 10:47 | 33.44902 | 129.85406 | 36055 ft | 431 kts | 341° |
| 2026-05-06 10:48 | 33.50761 | 129.83891 | 36057 ft | 432 kts | 341° |
| 2026-05-06 10:48 | 33.56663 | 129.82362 | 36059 ft | 432 kts | 341° |
| 2026-05-06 10:49 | 33.62532 | 129.80841 | 36059 ft | 432 kts | 341° |
| 2026-05-06 10:49 | 33.68409 | 129.79317 | 36059 ft | 432 kts | 341° |
| 2026-05-06 10:50 | 33.74332 | 129.77664 | 35532 ft | 428 kts | 338° |
| 2026-05-06 10:50 | 33.77299 | 129.76566 | 34487 ft | 434 kts | 335° |
| 2026-05-06 10:50 | 33.80275 | 129.75302 | 33445 ft | 440 kts | 334° |
| 2026-05-06 10:50 | 33.83213 | 129.74028 | 32514 ft | 444 kts | 334° |
| 2026-05-06 10:51 | 33.86179 | 129.72739 | 31651 ft | 445 kts | 335° |
| 2026-05-06 10:51 | 33.89135 | 129.71457 | 30813 ft | 446 kts | 335° |
| 2026-05-06 10:51 | 33.92106 | 129.70171 | 29968 ft | 447 kts | 335° |
| 2026-05-06 10:51 | 33.95081 | 129.68884 | 29121 ft | 448 kts | 335° |
| 2026-05-06 10:52 | 33.97032 | 129.68041 | 28552 ft | 449 kts | 335° |
| 2026-05-06 10:52 | 34.01040 | 129.66304 | 27365 ft | 450 kts | 336° |
| 2026-05-06 10:52 | 34.03051 | 129.65433 | 26756 ft | 451 kts | 336° |
| 2026-05-06 10:52 | 34.06993 | 129.63727 | 25924 ft | 443 kts | 336° |
| 2026-05-06 10:53 | 34.09943 | 129.62450 | 25343 ft | 437 kts | 336° |
| 2026-05-06 10:53 | 34.12793 | 129.61215 | 24776 ft | 431 kts | 336° |
| 2026-05-06 10:53 | 34.15642 | 129.59979 | 24207 ft | 425 kts | 336° |
| 2026-05-06 10:53 | 34.18469 | 129.58751 | 23637 ft | 420 kts | 336° |
| 2026-05-06 10:54 | 34.20315 | 129.57948 | 23260 ft | 417 kts | 336° |
| 2026-05-06 10:54 | 34.24004 | 129.56343 | 22505 ft | 412 kts | 337° |
| 2026-05-06 10:54 | 34.26693 | 129.55171 | 21951 ft | 408 kts | 337° |
| 2026-05-06 10:54 | 34.29361 | 129.54009 | 21370 ft | 405 kts | 337° |
| 2026-05-06 10:55 | 34.32041 | 129.52837 | 20704 ft | 405 kts | 337° |
| 2026-05-06 10:55 | 34.34717 | 129.51668 | 20089 ft | 403 kts | 337° |
| 2026-05-06 10:55 | 34.37414 | 129.50490 | 19498 ft | 400 kts | 338° |
| 2026-05-06 10:55 | 34.40051 | 129.49338 | 18931 ft | 398 kts | 338° |
| 2026-05-06 10:56 | 34.42709 | 129.48175 | 18361 ft | 395 kts | 338° |
| 2026-05-06 10:56 | 34.45303 | 129.47040 | 17803 ft | 392 kts | 338° |
| 2026-05-06 10:56 | 34.47899 | 129.45903 | 17243 ft | 390 kts | 338° |
| 2026-05-06 10:56 | 34.50462 | 129.44780 | 16695 ft | 387 kts | 338° |
| 2026-05-06 10:57 | 34.52993 | 129.43671 | 16164 ft | 384 kts | 338° |
| 2026-05-06 10:57 | 34.55533 | 129.42557 | 15631 ft | 382 kts | 339° |
| 2026-05-06 10:57 | 34.58058 | 129.41447 | 15098 ft | 379 kts | 339° |
| 2026-05-06 10:57 | 34.60516 | 129.40369 | 14572 ft | 377 kts | 339° |
| 2026-05-06 10:58 | 34.63012 | 129.39272 | 14030 ft | 374 kts | 339° |
| 2026-05-06 10:58 | 34.65485 | 129.38184 | 13486 ft | 372 kts | 339° |
| 2026-05-06 10:58 | 34.67936 | 129.37106 | 12938 ft | 371 kts | 339° |
| 2026-05-06 10:58 | 34.70367 | 129.36035 | 12387 ft | 369 kts | 339° |
| 2026-05-06 10:59 | 34.71989 | 129.35321 | 12014 ft | 368 kts | 340° |
| 2026-05-06 10:59 | 34.75261 | 129.33879 | 11283 ft | 365 kts | 339° |
| 2026-05-06 10:59 | 34.77634 | 129.32677 | 10950 ft | 355 kts | 329° |
| 2026-05-06 10:59 | 34.79587 | 129.30809 | 10721 ft | 342 kts | 312° |
| 2026-05-06 11:00 | 34.81018 | 129.28536 | 10550 ft | 329 kts | 303° |
| 2026-05-06 11:00 | 34.82231 | 129.26317 | 10327 ft | 320 kts | 302° |
| 2026-05-06 11:00 | 34.83050 | 129.24791 | 10167 ft | 315 kts | 302° |
| 2026-05-06 11:00 | 34.84256 | 129.22546 | 10057 ft | 302 kts | 302° |
| 2026-05-06 11:01 | 34.85819 | 129.19663 | 9672 ft | 295 kts | 302° |
| 2026-05-06 11:01 | 34.86960 | 129.17572 | 9381 ft | 291 kts | 302° |
| 2026-05-06 11:01 | 34.88097 | 129.15492 | 9063 ft | 288 kts | 302° |
| 2026-05-06 11:01 | 34.89229 | 129.13426 | 8614 ft | 289 kts | 302° |
| 2026-05-06 11:02 | 34.90371 | 129.11345 | 8270 ft | 287 kts | 302° |
| 2026-05-06 11:02 | 34.91526 | 129.09238 | 7906 ft | 285 kts | 302° |
| 2026-05-06 11:02 | 34.92677 | 129.07138 | 7474 ft | 285 kts | 302° |
| 2026-05-06 11:02 | 34.93809 | 129.05070 | 7178 ft | 281 kts | 302° |
| 2026-05-06 11:03 | 34.94946 | 129.02995 | 6705 ft | 284 kts | 302° |
| 2026-05-06 11:03 | 34.95696 | 129.01623 | 6512 ft | 281 kts | 302° |
| 2026-05-06 11:03 | 34.96817 | 128.99574 | 6173 ft | 279 kts | 302° |
| 2026-05-06 11:03 | 34.98282 | 128.96895 | 5671 ft | 278 kts | 302° |
| 2026-05-06 11:04 | 34.99010 | 128.95563 | 5478 ft | 276 kts | 302° |
| 2026-05-06 11:04 | 35.00452 | 128.92923 | 4948 ft | 277 kts | 302° |
| 2026-05-06 11:04 | 35.01516 | 128.90974 | 4722 ft | 271 kts | 302° |
| 2026-05-06 11:04 | 35.02546 | 128.89088 | 4603 ft | 261 kts | 302° |
| 2026-05-06 11:05 | 35.03531 | 128.87283 | 4506 ft | 251 kts | 302° |
| 2026-05-06 11:05 | 35.04482 | 128.85539 | 4419 ft | 241 kts | 302° |
| 2026-05-06 11:05 | 35.05387 | 128.83879 | 4270 ft | 234 kts | 301° |
| 2026-05-06 11:05 | 35.06329 | 128.82297 | 4093 ft | 230 kts | 314° |
| 2026-05-06 11:06 | 35.07724 | 128.81503 | 3998 ft | 218 kts | 355° |
| 2026-05-06 11:06 | 35.09083 | 128.82024 | 3865 ft | 205 kts | 38° |
| 2026-05-06 11:06 | 35.10051 | 128.83302 | 3443 ft | 208 kts | 52° |
| 2026-05-06 11:06 | 35.10987 | 128.84674 | 3014 ft | 212 kts | 49° |
| 2026-05-06 11:07 | 35.12041 | 128.85924 | 2666 ft | 211 kts | 35° |
| 2026-05-06 11:07 | 35.13303 | 128.86560 | 2789 ft | 183 kts | 15° |
| 2026-05-06 11:07 | 35.14458 | 128.86908 | 2883 ft | 163 kts | 12° |
| 2026-05-06 11:07 | 35.15552 | 128.87209 | 2948 ft | 161 kts | 12° |
| 2026-05-06 11:08 | 35.16647 | 128.87503 | 2977 ft | 161 kts | 12° |
| 2026-05-06 11:08 | 35.17743 | 128.87797 | 2989 ft | 161 kts | 12° |
| 2026-05-06 11:08 | 35.18840 | 128.88092 | 2994 ft | 161 kts | 12° |
| 2026-05-06 11:08 | 35.19929 | 128.88385 | 2996 ft | 161 kts | 12° |
| 2026-05-06 11:09 | 35.21026 | 128.88614 | 2990 ft | 160 kts | 355° |
| 2026-05-06 11:09 | 35.22061 | 128.88191 | 3000 ft | 158 kts | 328° |
| 2026-05-06 11:09 | 35.22992 | 128.87466 | 3001 ft | 157 kts | 323° |
| 2026-05-06 11:09 | 35.23880 | 128.86706 | 2999 ft | 157 kts | 322° |
| 2026-05-06 11:10 | 35.24842 | 128.86058 | 2980 ft | 160 kts | 348° |
| 2026-05-06 11:10 | 35.25925 | 128.86305 | 2990 ft | 164 kts | 36° |
| 2026-05-06 11:10 | 35.26623 | 128.87367 | 3000 ft | 162 kts | 75° |
| 2026-05-06 11:10 | 35.26553 | 128.88690 | 2996 ft | 155 kts | 123° |
| 2026-05-06 11:11 | 35.25832 | 128.89621 | 3037 ft | 145 kts | 145° |
| 2026-05-06 11:11 | 35.25040 | 128.90344 | 2864 ft | 143 kts | 146° |
| 2026-05-06 11:11 | 35.24527 | 128.90843 | 2584 ft | 143 kts | 144° |
| 2026-05-06 11:11 | 35.23786 | 128.91655 | 2137 ft | 145 kts | 138° |
| 2026-05-06 11:12 | 35.23095 | 128.92554 | 1707 ft | 144 kts | 136° |
| 2026-05-06 11:12 | 35.22293 | 128.93187 | 1302 ft | 139 kts | 171° |
| 2026-05-06 11:12 | 35.20983 | 128.93245 | 673 ft | 142 kts | 170° |
| 2026-05-06 11:12 | 35.20023 | 128.93433 | 299 ft | 139 kts | 176° |
| 2026-05-06 11:13 | 35.19096 | 128.93535 | 70 ft | 132 kts | 173° |
| 2026-05-06 11:13 | 35.18222 | 128.93657 | 22 ft | 115 kts | 173° |
| 2026-05-06 11:13 | 35.17597 | 128.93741 | 22 ft | 67 kts | 173° |
| 2026-05-06 11:13 | 35.17304 | 128.93782 | 22 ft | 17 kts | 171° |
| 2026-05-06 11:14 | 35.17250 | 128.93794 | 22 ft | 13 kts | 165° |
| 2026-05-06 11:14 | 35.17108 | 128.93869 | 22 ft | 13 kts | 147° |
| 2026-05-06 11:14 | 35.17045 | 128.93924 | 22 ft | 11 kts | 144° |
| 2026-05-06 11:14 | 35.17002 | 128.93962 | 22 ft | 11 kts | 143° |
| 2026-05-06 11:15 | 35.16961 | 128.94034 | 22 ft | 11 kts | 94° |
| 2026-05-06 11:15 | 35.16967 | 128.94130 | 22 ft | 12 kts | 85° |
| 2026-05-06 11:15 | 35.16978 | 128.94247 | 22 ft | 8 kts | 83° |
| 2026-05-06 11:15 | 35.16986 | 128.94321 | 22 ft | 9 kts | 83° |
| 2026-05-06 11:16 | 35.16994 | 128.94406 | 22 ft | 10 kts | 84° |
| 2026-05-06 11:16 | 35.17001 | 128.94501 | 22 ft | 11 kts | 90° |
| 2026-05-06 11:16 | 35.16976 | 128.94592 | 22 ft | 8 kts | 115° |
| 2026-05-06 11:16 | 35.16953 | 128.94655 | 22 ft | 7 kts | 114° |
| 2026-05-06 11:17 | 35.16944 | 128.94705 | 22 ft | 6 kts | 79° |
| 2026-05-06 11:17 | 35.16964 | 128.94728 | 22 ft | 0 kts | 24° |
| 2026-05-06 11:17 | 35.16986 | 128.94742 | 22 ft | 5 kts | 25° |
| 2026-05-06 11:17 | 35.17011 | 128.94756 | 22 ft | 0 kts | 24° |